Time;durP1;ratioP1;P1;durP2;ratioP2;P2;SDS_P1;SDS_P2;PMS_P1;PMS_P2;Temp;Humidity;BMP_temperature;BMP_pressure;BME280_temperature;BME280_humidity;BME280_pressure;Samples;Min_cycle;Max_cycle;Signal;HPM_P1;HPM_P2
2022/07/19 00:00:33;;;;;;;6.47;1.60;;;28.20;37.90;;;;;;6185480;23;20001;-65
2022/07/19 00:02:59;;;;;;;5.50;1.30;;;28.10;37.80;;;;;;6185354;23;20005;-65
2022/07/19 00:05:25;;;;;;;2.00;1.42;;;28.10;37.70;;;;;;6185120;23;20427;-65
2022/07/19 00:07:51;;;;;;;3.10;1.90;;;28.10;37.50;;;;;;6185550;23;20017;-64
2022/07/19 00:10:19;;;;;;;3.17;1.30;;;28.10;37.70;;;;;;6184871;23;20017;-65
2022/07/19 00:12:45;;;;;;;4.00;1.73;;;28.10;38.00;;;;;;6185115;23;20479;-64
2022/07/19 00:15:13;;;;;;;2.63;1.38;;;28.10;37.70;;;;;;6185304;23;20005;-63
2022/07/19 00:17:41;;;;;;;3.53;1.35;;;28.00;37.70;;;;;;6185168;23;20017;-64
2022/07/19 00:20:09;;;;;;;7.65;1.45;;;28.10;37.90;;;;;;6185033;23;20005;-64
2022/07/19 00:22:34;;;;;;;3.65;1.60;;;28.10;37.80;;;;;;6185461;23;20323;-65
2022/07/19 00:25:00;;;;;;;3.63;1.30;;;28.10;37.80;;;;;;6185378;23;20029;-65
2022/07/19 00:27:26;;;;;;;2.65;1.20;;;28.10;37.60;;;;;;6185741;23;20047;-65
2022/07/19 00:29:51;;;;;;;5.65;1.23;;;28.10;37.70;;;;;;6185159;23;20337;-64
2022/07/19 00:32:17;;;;;;;2.30;1.30;;;28.10;37.70;;;;;;6185326;23;20001;-62
2022/07/19 00:34:43;;;;;;;7.13;1.70;;;28.00;37.60;;;;;;6184940;23;20001;-65
2022/07/19 00:37:08;;;;;;;4.80;1.40;;;28.00;37.70;;;;;;6185459;23;20082;-64
2022/07/19 00:39:34;;;;;;;2.85;1.35;;;28.00;37.60;;;;;;6184986;23;20007;-64
2022/07/19 00:42:00;;;;;;;2.00;1.20;;;28.00;37.60;;;;;;6184900;23;19997;-65
2022/07/19 00:44:25;;;;;;;2.53;1.38;;;28.00;37.80;;;;;;6184919;23;20435;-64
2022/07/19 00:46:51;;;;;;;5.90;1.52;;;28.00;37.90;;;;;;6184782;23;20059;-64
2022/07/19 00:49:17;;;;;;;3.10;1.50;;;28.00;38.00;;;;;;6184835;23;20008;-64
2022/07/19 00:51:43;;;;;;;4.03;1.52;;;28.00;38.20;;;;;;6185109;23;20001;-65
2022/07/19 00:54:12;;;;;;;4.25;1.30;;;28.00;38.00;;;;;;6185402;23;20013;-64
2022/07/19 00:56:42;;;;;;;2.65;1.40;;;28.00;38.20;;;;;;6184789;23;20001;-65
2022/07/19 00:59:08;;;;;;;6.88;1.35;;;28.00;38.10;;;;;;6181915;23;20025;-65
2022/07/19 01:01:34;;;;;;;3.55;1.42;;;28.00;38.30;;;;;;6181473;23;20009;-62
2022/07/19 01:03:59;;;;;;;5.15;1.50;;;27.90;38.20;;;;;;6181582;23;20051;-65
2022/07/19 01:06:26;;;;;;;4.05;1.42;;;27.90;38.30;;;;;;6184138;23;20008;-65
2022/07/19 01:08:52;;;;;;;2.25;1.25;;;27.90;38.20;;;;;;6184378;23;20001;-64
2022/07/19 01:11:17;;;;;;;7.43;1.70;;;27.90;38.30;;;;;;6184959;23;20017;-65
2022/07/19 01:13:43;;;;;;;8.73;1.60;;;27.90;38.30;;;;;;6184392;23;20020;-64
2022/07/19 01:16:09;;;;;;;4.35;1.50;;;27.90;38.30;;;;;;6185031;23;20439;-64
2022/07/19 01:18:35;;;;;;;4.03;1.55;;;27.90;38.30;;;;;;6184611;23;20369;-65
2022/07/19 01:21:03;;;;;;;3.30;1.58;;;27.90;38.60;;;;;;6184382;23;20012;-64
2022/07/19 01:23:29;;;;;;;3.03;1.35;;;27.80;38.50;;;;;;6184774;23;19993;-65
2022/07/19 01:25:55;;;;;;;2.30;1.30;;;27.80;38.50;;;;;;6185045;23;20013;-65
2022/07/19 01:28:20;;;;;;;3.63;1.40;;;27.70;38.70;;;;;;6184399;23;20005;-64
2022/07/19 01:30:46;;;;;;;2.03;1.38;;;27.70;39.00;;;;;;6184960;23;20284;-64
2022/07/19 01:33:12;;;;;;;3.47;1.50;;;27.70;38.90;;;;;;6184631;23;20325;-65
2022/07/19 01:35:37;;;;;;;6.40;1.13;;;27.70;39.10;;;;;;6184217;23;20006;-64
2022/07/19 01:38:03;;;;;;;4.18;1.50;;;27.70;39.20;;;;;;6184267;23;20468;-64
2022/07/19 01:40:29;;;;;;;2.63;1.30;;;27.60;39.20;;;;;;6184325;23;20013;-65
2022/07/19 01:42:55;;;;;;;4.93;1.42;;;27.70;39.40;;;;;;6184422;23;20004;-64
2022/07/19 01:45:21;;;;;;;4.90;1.35;;;27.60;39.30;;;;;;6184590;23;20376;-65
2022/07/19 01:47:47;;;;;;;2.42;1.27;;;27.60;39.20;;;;;;6184443;23;20001;-65
2022/07/19 01:50:15;;;;;;;5.60;1.55;;;27.60;39.20;;;;;;6186012;23;20143;-64
2022/07/19 01:52:40;;;;;;;4.13;1.40;;;27.60;39.10;;;;;;6186421;23;20008;-65
2022/07/19 01:55:07;;;;;;;2.47;1.30;;;27.60;39.10;;;;;;6186761;23;20005;-65
2022/07/19 01:57:32;;;;;;;3.53;1.30;;;27.50;39.10;;;;;;6187212;23;20355;-64
2022/07/19 01:59:58;;;;;;;4.43;1.30;;;27.50;39.50;;;;;;6186463;23;20001;-64
2022/07/19 02:02:24;;;;;;;3.15;1.30;;;27.40;39.40;;;;;;6186556;23;20067;-64
2022/07/19 02:04:50;;;;;;;2.38;1.30;;;27.40;39.20;;;;;;6186844;23;20019;-65
2022/07/19 02:07:16;;;;;;;3.38;1.52;;;27.40;39.10;;;;;;6186496;23;20001;-64
2022/07/19 02:09:42;;;;;;;2.47;1.45;;;27.40;39.10;;;;;;6186239;23;20096;-65
2022/07/19 02:12:07;;;;;;;3.80;1.30;;;27.40;39.40;;;;;;6186501;23;20140;-66
2022/07/19 02:14:33;;;;;;;4.63;1.73;;;27.40;39.30;;;;;;6186439;23;20435;-65
2022/07/19 02:16:59;;;;;;;3.00;1.50;;;27.40;39.60;;;;;;6186313;23;20017;-66
2022/07/19 02:19:25;;;;;;;5.55;1.50;;;27.40;39.70;;;;;;6186532;23;20335;-65
2022/07/19 02:21:50;;;;;;;9.18;1.67;;;27.40;39.70;;;;;;6186215;23;20001;-66
2022/07/19 02:24:16;;;;;;;2.83;1.42;;;27.30;39.60;;;;;;6186199;23;20056;-65
2022/07/19 02:26:42;;;;;;;4.28;1.40;;;27.30;39.40;;;;;;6186422;23;20328;-66
2022/07/19 02:29:09;;;;;;;2.55;1.50;;;27.20;39.60;;;;;;6186686;23;20040;-65
2022/07/19 02:31:35;;;;;;;3.25;1.60;;;27.10;39.80;;;;;;6186508;23;20067;-65
2022/07/19 02:34:00;;;;;;;5.05;1.80;;;27.10;41.20;;;;;;6186217;23;20158;-66
2022/07/19 02:36:26;;;;;;;1.50;1.20;;;27.10;40.80;;;;;;6186591;23;20007;-63
2022/07/19 02:38:52;;;;;;;6.88;1.48;;;27.00;41.20;;;;;;6186266;23;20088;-65
2022/07/19 02:41:18;;;;;;;5.88;1.40;;;27.00;41.30;;;;;;6186045;23;19997;-65
2022/07/19 02:43:44;;;;;;;3.60;1.88;;;27.00;41.70;;;;;;6186208;23;20332;-65
2022/07/19 02:46:09;;;;;;;4.28;1.80;;;26.90;41.90;;;;;;6186160;23;20024;-64
2022/07/19 02:48:35;;;;;;;4.53;1.63;;;26.90;41.80;;;;;;6186255;23;20012;-64
2022/07/19 02:51:01;;;;;;;2.55;1.48;;;26.80;41.60;;;;;;6185632;23;20029;-64
2022/07/19 02:53:26;;;;;;;6.90;1.85;;;26.80;41.20;;;;;;6186067;23;20036;-64
2022/07/19 02:55:52;;;;;;;6.53;1.40;;;26.90;41.50;;;;;;6186197;23;20039;-64
2022/07/19 02:58:18;;;;;;;4.60;1.80;;;26.80;41.50;;;;;;6185914;23;20005;-64
2022/07/19 03:00:44;;;;;;;5.20;1.73;;;26.80;41.80;;;;;;6186165;23;20092;-64
2022/07/19 03:05:55;;;;;;;7.95;1.60;;;26.80;41.80;;;;;;6185719;23;20012;-64
2022/07/19 03:08:21;;;;;;;5.78;1.60;;;26.70;42.00;;;;;;6185693;23;20005;-64
2022/07/19 03:10:47;;;;;;;5.82;1.48;;;26.70;41.80;;;;;;6185822;23;20088;-64
2022/07/19 03:13:13;;;;;;;3.13;1.40;;;26.60;42.40;;;;;;6185453;23;20005;-64
2022/07/19 03:15:38;;;;;;;5.10;1.60;;;26.60;42.30;;;;;;6185743;23;20009;-64
2022/07/19 03:18:04;;;;;;;4.35;1.60;;;26.60;42.40;;;;;;6185401;23;20037;-64
2022/07/19 03:20:30;;;;;;;6.53;1.90;;;26.60;42.40;;;;;;6185707;23;20079;-64
2022/07/19 03:22:56;;;;;;;4.07;1.77;;;26.50;42.50;;;;;;6186088;23;20016;-64
2022/07/19 03:25:22;;;;;;;6.20;1.58;;;26.50;42.60;;;;;;6186312;23;20009;-64
2022/07/19 03:27:48;;;;;;;7.03;1.73;;;26.50;42.30;;;;;;6185421;23;20048;-64
2022/07/19 03:30:14;;;;;;;4.18;1.75;;;26.50;42.20;;;;;;6185495;23;20013;-64
2022/07/19 03:32:40;;;;;;;4.72;1.70;;;26.50;42.30;;;;;;6185385;23;20001;-64
2022/07/19 03:35:06;;;;;;;6.95;1.80;;;26.40;42.20;;;;;;6185951;23;20056;-64
2022/07/19 03:37:32;;;;;;;8.07;2.08;;;26.40;42.30;;;;;;6185710;23;20055;-64
2022/07/19 03:39:58;;;;;;;8.30;1.95;;;26.40;42.10;;;;;;6185478;23;20423;-64
2022/07/19 03:42:23;;;;;;;3.25;1.60;;;26.40;42.50;;;;;;6186197;23;20010;-63
2022/07/19 03:44:49;;;;;;;4.32;1.80;;;26.40;42.60;;;;;;6185599;23;20002;-64
2022/07/19 03:47:15;;;;;;;7.32;2.00;;;26.40;42.70;;;;;;6185663;23;20005;-64
2022/07/19 03:49:40;;;;;;;4.68;1.80;;;26.40;42.40;;;;;;6185470;23;20096;-63
2022/07/19 03:52:06;;;;;;;4.15;1.52;;;26.40;42.50;;;;;;6185135;23;20004;-64
2022/07/19 03:54:32;;;;;;;4.35;1.67;;;26.40;42.40;;;;;;6185257;23;20375;-64
2022/07/19 03:56:57;;;;;;;7.75;1.90;;;26.40;42.20;;;;;;6184864;23;20001;-64
2022/07/19 03:59:23;;;;;;;3.55;1.63;;;26.40;42.30;;;;;;6185010;23;20052;-62
2022/07/19 04:01:49;;;;;;;6.03;2.22;;;26.40;42.50;;;;;;6185485;23;20323;-64
2022/07/19 04:04:15;;;;;;;4.80;1.52;;;26.40;42.70;;;;;;6184914;23;20004;-64
2022/07/19 04:06:41;;;;;;;5.93;1.77;;;26.40;42.80;;;;;;6185546;23;20028;-63
2022/07/19 04:09:08;;;;;;;4.82;1.83;;;26.40;42.70;;;;;;6185241;23;20017;-63
2022/07/19 04:11:33;;;;;;;7.82;1.67;;;26.40;42.90;;;;;;6184821;23;20005;-63
2022/07/19 04:13:59;;;;;;;13.13;2.30;;;26.40;43.20;;;;;;6184865;23;20420;-65
2022/07/19 04:16:25;;;;;;;9.77;2.30;;;26.40;43.70;;;;;;6184993;23;20044;-64
2022/07/19 04:18:50;;;;;;;14.45;2.25;;;26.30;44.70;;;;;;6185133;23;20088;-65
2022/07/19 04:21:16;;;;;;;4.82;1.85;;;26.30;44.90;;;;;;6185018;23;20092;-64
2022/07/19 04:23:42;;;;;;;15.15;2.45;;;26.30;45.40;;;;;;6185090;23;20001;-64
2022/07/19 04:26:07;;;;;;;13.35;2.65;;;26.30;45.30;;;;;;6185186;23;20556;-64
2022/07/19 04:28:33;;;;;;;9.27;2.00;;;26.20;45.50;;;;;;6185750;23;20005;-64
2022/07/19 04:30:59;;;;;;;13.35;2.40;;;26.20;45.40;;;;;;6185152;23;20036;-64
2022/07/19 04:33:25;;;;;;;8.63;2.25;;;26.20;45.60;;;;;;6184969;23;20017;-64
2022/07/19 04:35:51;;;;;;;14.38;2.22;;;26.20;45.50;;;;;;6184851;23;20039;-64
2022/07/19 04:38:17;;;;;;;11.75;2.25;;;26.10;45.90;;;;;;6183986;23;20009;-64
2022/07/19 04:40:43;;;;;;;10.52;1.98;;;26.10;46.30;;;;;;6184770;23;20043;-64
2022/07/19 04:43:08;;;;;;;8.30;2.17;;;26.10;46.10;;;;;;6185325;23;20004;-63
2022/07/19 04:45:34;;;;;;;12.60;2.30;;;26.10;46.40;;;;;;6185117;23;20051;-64
2022/07/19 04:48:00;;;;;;;19.77;2.50;;;26.20;46.50;;;;;;6185123;23;20033;-63
2022/07/19 04:50:26;;;;;;;12.40;2.30;;;26.10;46.00;;;;;;6185100;23;20318;-63
2022/07/19 04:52:51;;;;;;;11.38;2.53;;;26.10;46.00;;;;;;6185266;23;20008;-64
2022/07/19 04:55:17;;;;;;;4.68;2.00;;;26.10;45.80;;;;;;6185176;23;20052;-64
2022/07/19 04:57:43;;;;;;;10.70;2.40;;;26.10;45.40;;;;;;6184358;23;20424;-63
2022/07/19 05:00:10;;;;;;;13.98;2.63;;;26.10;45.70;;;;;;6184986;23;20337;-63
2022/07/19 05:02:36;;;;;;;14.65;2.55;;;26.10;45.70;;;;;;6184941;23;20040;-64
2022/07/19 05:05:04;;;;;;;8.02;2.35;;;26.10;45.40;;;;;;6184969;23;20092;-64
2022/07/19 05:07:29;;;;;;;9.38;2.42;;;26.00;45.00;;;;;;6185344;23;20435;-63
2022/07/19 05:09:55;;;;;;;5.75;2.17;;;26.10;45.10;;;;;;6185188;23;20099;-65
2022/07/19 05:12:21;;;;;;;6.43;2.67;;;26.10;45.10;;;;;;6185377;23;20009;-63
2022/07/19 05:14:46;;;;;;;6.30;2.05;;;26.10;45.10;;;;;;6184671;23;20440;-64
2022/07/19 05:17:12;;;;;;;8.02;2.15;;;26.10;45.20;;;;;;6185053;23;20023;-63
2022/07/19 05:19:38;;;;;;;6.47;1.92;;;26.20;45.00;;;;;;6184820;23;20013;-63
2022/07/19 05:22:03;;;;;;;4.82;2.00;;;26.10;44.60;;;;;;6184736;23;20001;-63
2022/07/19 05:24:29;;;;;;;8.70;1.80;;;26.20;44.50;;;;;;6185574;23;20005;-64
2022/07/19 05:26:55;;;;;;;13.68;2.20;;;26.20;44.90;;;;;;6186632;23;20035;-63
2022/07/19 05:29:20;;;;;;;7.72;1.67;;;26.20;45.00;;;;;;6185604;23;20005;-67
2022/07/19 05:31:46;;;;;;;10.32;2.20;;;26.20;44.40;;;;;;6187112;23;20083;-63
2022/07/19 05:34:12;;;;;;;6.05;1.80;;;26.20;44.20;;;;;;6187324;23;20470;-64
2022/07/19 05:36:39;;;;;;;3.45;1.85;;;26.30;44.20;;;;;;6187176;23;20013;-64
2022/07/19 05:39:04;;;;;;;4.80;1.75;;;26.20;44.40;;;;;;6186794;23;20064;-65
2022/07/19 05:41:30;;;;;;;6.53;1.83;;;26.20;44.60;;;;;;6187065;23;20029;-66
2022/07/19 05:43:56;;;;;;;10.77;1.63;;;26.30;44.40;;;;;;6186587;23;20021;-66
2022/07/19 05:46:21;;;;;;;7.93;1.90;;;26.30;44.70;;;;;;6187002;23;20399;-65
2022/07/19 05:48:47;;;;;;;8.73;1.98;;;26.40;45.10;;;;;;6185939;23;20331;-66
2022/07/19 05:51:13;;;;;;;12.65;1.85;;;26.40;45.20;;;;;;6184549;23;20021;-66
2022/07/19 05:53:39;;;;;;;9.90;1.80;;;26.50;45.30;;;;;;6185457;23;20040;-64
2022/07/19 05:56:05;;;;;;;5.90;2.08;;;26.50;45.30;;;;;;6186345;23;20079;-64
2022/07/19 05:58:31;;;;;;;6.88;2.20;;;26.60;45.20;;;;;;6185275;23;20005;-65
2022/07/19 06:03:41;;;;;;;5.38;1.52;;;26.60;44.80;;;;;;6185559;23;20011;-66
2022/07/19 06:06:07;;;;;;;7.88;1.83;;;26.70;44.40;;;;;;6186390;23;20013;-66
2022/07/19 06:08:33;;;;;;;3.15;1.50;;;26.80;44.00;;;;;;6185953;23;20004;-66
2022/07/19 06:10:59;;;;;;;6.10;1.98;;;26.80;43.80;;;;;;6203425;23;20095;-65
2022/07/19 06:13:25;;;;;;;7.47;1.75;;;26.90;43.40;;;;;;6215421;23;19997;-65
2022/07/19 06:15:50;;;;;;;6.13;1.60;;;26.90;43.20;;;;;;6216106;23;20005;-64
2022/07/19 06:18:16;;;;;;;4.97;1.42;;;27.00;43.10;;;;;;6215870;23;20021;-66
2022/07/19 06:20:42;;;;;;;2.38;1.58;;;27.00;42.70;;;;;;6216338;23;20004;-64
2022/07/19 06:23:08;;;;;;;4.47;1.50;;;27.10;42.60;;;;;;6215050;23;20007;-67
2022/07/19 06:25:34;;;;;;;6.10;1.80;;;27.10;42.50;;;;;;6213247;23;20379;-65
2022/07/19 06:27:59;;;;;;;8.57;2.20;;;27.10;42.50;;;;;;6213292;23;20028;-67
2022/07/19 06:30:25;;;;;;;3.42;1.65;;;27.20;42.40;;;;;;6214997;23;20040;-67
2022/07/19 06:32:51;;;;;;;6.25;1.80;;;27.20;42.30;;;;;;6216340;23;20377;-67
2022/07/19 06:35:17;;;;;;;5.70;1.55;;;27.30;41.90;;;;;;6214286;23;20029;-66
2022/07/19 06:37:43;;;;;;;4.97;1.48;;;27.30;41.50;;;;;;6213152;23;20004;-66
2022/07/19 06:40:09;;;;;;;3.42;1.48;;;27.30;41.50;;;;;;6212877;23;20531;-66
2022/07/19 06:42:35;;;;;;;6.63;1.45;;;27.40;41.60;;;;;;6215514;23;20008;-65
2022/07/19 06:45:01;;;;;;;3.10;1.45;;;27.40;41.30;;;;;;6216409;23;20335;-65
2022/07/19 06:47:28;;;;;;;7.68;1.92;;;27.40;41.10;;;;;;6214099;23;20012;-65
2022/07/19 06:49:54;;;;;;;4.90;1.40;;;27.50;41.20;;;;;;6212950;23;20019;-65
2022/07/19 06:52:20;;;;;;;3.60;1.50;;;27.50;41.20;;;;;;6214979;23;20009;-65
2022/07/19 06:54:46;;;;;;;7.97;1.60;;;27.60;41.10;;;;;;6216926;23;20009;-64
2022/07/19 06:57:11;;;;;;;5.03;1.40;;;27.60;40.70;;;;;;6216304;23;20434;-65
2022/07/19 06:59:37;;;;;;;5.05;1.40;;;27.70;40.50;;;;;;6216503;23;20016;-64
2022/07/19 07:02:04;;;;;;;4.07;1.27;;;27.70;40.20;;;;;;6216268;23;20005;-65
2022/07/19 07:04:30;;;;;;;4.55;1.42;;;27.80;40.00;;;;;;6216498;23;20055;-64
2022/07/19 07:06:56;;;;;;;4.00;1.65;;;27.80;39.90;;;;;;6215842;23;20498;-65
2022/07/19 07:09:22;;;;;;;6.30;1.52;;;27.90;39.70;;;;;;6215421;23;20022;-64
2022/07/19 07:11:48;;;;;;;3.05;1.40;;;27.90;39.60;;;;;;6216370;23;20084;-65
2022/07/19 07:14:13;;;;;;;4.03;1.63;;;28.00;40.20;;;;;;6216039;23;20009;-65
2022/07/19 07:16:39;;;;;;;2.45;1.30;;;28.00;40.10;;;;;;6215929;23;20022;-64
2022/07/19 07:19:05;;;;;;;7.10;1.50;;;28.10;40.00;;;;;;6216005;23;20001;-64
2022/07/19 07:21:34;;;;;;;3.65;1.63;;;28.10;39.60;;;;;;6215884;23;20024;-65
2022/07/19 07:24:04;;;;;;;3.38;1.10;;;28.20;39.40;;;;;;6215995;23;20032;-65
2022/07/19 07:26:30;;;;;;;4.30;1.30;;;28.20;39.40;;;;;;6216316;23;20003;-65
2022/07/19 07:28:56;;;;;;;6.25;1.27;;;28.20;39.30;;;;;;6216181;23;20077;-65
2022/07/19 07:31:22;;;;;;;5.97;1.13;;;28.30;38.90;;;;;;6216105;23;20316;-65
2022/07/19 07:33:47;;;;;;;2.70;1.23;;;28.30;38.40;;;;;;6216216;23;20001;-65
2022/07/19 07:36:13;;;;;;;4.70;1.30;;;28.30;38.30;;;;;;6216172;23;20012;-65
2022/07/19 07:38:39;;;;;;;6.55;1.35;;;28.40;38.50;;;;;;6215963;23;20445;-65
2022/07/19 07:41:05;;;;;;;3.50;1.23;;;28.50;38.30;;;;;;6215670;23;20007;-65
2022/07/19 07:43:30;;;;;;;5.18;1.73;;;28.50;37.90;;;;;;6214611;23;20083;-64
2022/07/19 07:45:56;;;;;;;4.50;1.30;;;28.60;38.40;;;;;;6214966;23;20316;-65
2022/07/19 07:48:22;;;;;;;5.82;1.42;;;28.60;37.90;;;;;;6214794;23;20012;-65
2022/07/19 07:50:48;;;;;;;5.38;1.52;;;28.70;37.80;;;;;;6215422;23;20016;-65
2022/07/19 07:53:14;;;;;;;2.33;1.20;;;28.70;38.10;;;;;;6215349;23;20074;-65
2022/07/19 07:55:40;;;;;;;9.30;1.50;;;28.80;38.10;;;;;;6215365;23;20009;-65
2022/07/19 07:58:08;;;;;;;5.32;1.40;;;28.80;37.90;;;;;;6215562;23;20058;-65
2022/07/19 08:00:34;;;;;;;2.33;1.13;;;28.90;37.30;;;;;;6215404;23;20427;-65
2022/07/19 08:03:00;;;;;;;5.32;1.50;;;28.90;37.30;;;;;;6215675;23;20039;-65
2022/07/19 08:05:26;;;;;;;4.32;1.23;;;29.00;37.60;;;;;;6215431;23;20004;-65
2022/07/19 08:07:51;;;;;;;7.75;1.30;;;29.00;37.60;;;;;;6215277;23;20000;-65
2022/07/19 08:10:19;;;;;;;5.85;1.48;;;29.10;37.00;;;;;;6215533;23;20021;-66
2022/07/19 08:12:44;;;;;;;7.63;1.38;;;29.20;36.90;;;;;;6214746;23;20028;-64
2022/07/19 08:15:10;;;;;;;7.10;1.80;;;29.30;36.90;;;;;;6214980;23;20011;-64
2022/07/19 08:17:36;;;;;;;5.93;1.95;;;29.30;36.90;;;;;;6215125;23;20017;-64
2022/07/19 08:20:02;;;;;;;3.83;1.23;;;29.40;36.90;;;;;;6215318;23;20061;-64
2022/07/19 08:22:29;;;;;;;11.45;1.42;;;29.50;35.70;;;;;;6215489;23;20013;-65
2022/07/19 08:24:54;;;;;;;2.95;1.10;;;29.50;34.70;;;;;;6215766;23;20387;-64
2022/07/19 08:27:20;;;;;;;15.07;1.73;;;29.60;34.20;;;;;;6214852;23;20005;-64
2022/07/19 08:29:46;;;;;;;6.57;1.45;;;29.70;33.80;;;;;;6214219;23;20491;-64
2022/07/19 08:32:11;;;;;;;4.07;1.17;;;29.80;33.70;;;;;;6214051;23;20309;-64
2022/07/19 08:34:37;;;;;;;13.23;1.50;;;29.80;33.70;;;;;;6214466;23;20004;-63
2022/07/19 08:37:03;;;;;;;5.63;1.10;;;29.80;33.60;;;;;;6214848;23;20005;-65
2022/07/19 08:39:29;;;;;;;4.15;1.50;;;29.90;33.50;;;;;;6214446;23;20327;-64
2022/07/19 08:41:54;;;;;;;1.75;1.00;;;30.00;33.20;;;;;;6213969;23;20008;-64
2022/07/19 08:44:22;;;;;;;5.75;1.10;;;30.10;32.80;;;;;;6214461;23;20487;-65
2022/07/19 08:46:48;;;;;;;5.47;1.27;;;30.20;32.90;;;;;;6214226;23;20001;-65
2022/07/19 08:49:15;;;;;;;8.00;1.35;;;30.20;32.70;;;;;;6214013;23;20447;-65
2022/07/19 08:51:42;;;;;;;21.80;3.40;;;30.30;32.50;;;;;;6214064;23;20128;-65
2022/07/19 08:54:08;;;;;;;11.48;1.58;;;30.30;32.20;;;;;;6214474;23;20009;-65
2022/07/19 08:59:18;;;;;;;6.10;2.05;;;30.40;32.20;;;;;;6215704;23;20015;-65
2022/07/19 09:01:44;;;;;;;11.00;2.72;;;30.40;32.50;;;;;;6216340;23;20001;-65
2022/07/19 09:04:13;;;;;;;10.07;2.28;;;30.50;32.80;;;;;;6216179;23;20009;-65
2022/07/19 09:06:53;;;;;;;14.75;3.25;;;30.60;32.80;;;;;;6216413;23;20063;-65
2022/07/19 09:09:22;;;;;;;5.90;2.10;;;30.70;33.20;;;;;;6216052;23;20005;-64
2022/07/19 09:11:51;;;;;;;14.63;3.05;;;30.70;33.00;;;;;;6216260;23;20011;-65
2022/07/19 09:14:27;;;;;;;10.50;2.13;;;30.80;33.20;;;;;;6217234;23;20340;-64
2022/07/19 09:17:03;;;;;;;7.88;2.15;;;30.90;32.80;;;;;;6216996;23;20029;-64
2022/07/19 09:19:32;;;;;;;17.77;2.78;;;31.00;32.60;;;;;;6217150;23;20380;-65
2022/07/19 09:22:13;;;;;;;11.30;2.05;;;31.10;32.60;;;;;;6217091;23;20004;-65
2022/07/19 09:24:50;;;;;;;3.00;1.25;;;31.10;32.70;;;;;;6217191;23;20008;-64
2022/07/19 09:27:25;;;;;;;5.22;1.52;;;31.20;32.50;;;;;;6216852;23;20131;-74
2022/07/19 09:29:56;;;;;;;4.57;1.40;;;31.20;32.30;;;;;;6216844;23;20012;-63
2022/07/19 09:32:24;;;;;;;5.30;1.40;;;31.30;32.30;;;;;;6217344;23;20117;-64
2022/07/19 09:34:55;;;;;;;5.00;1.20;;;31.30;32.30;;;;;;6216348;23;20009;-63
2022/07/19 09:37:23;;;;;;;2.78;1.58;;;31.40;32.40;;;;;;6216030;23;20095;-64
2022/07/19 09:39:51;;;;;;;4.53;1.20;;;31.40;32.00;;;;;;6216186;23;20072;-64
2022/07/19 09:42:21;;;;;;;5.13;1.20;;;31.50;32.00;;;;;;6215824;23;20008;-64
2022/07/19 09:44:55;;;;;;;4.88;1.33;;;31.50;32.00;;;;;;6216057;23;20001;-64
2022/07/19 09:47:37;;;;;;;4.82;1.48;;;31.60;32.10;;;;;;6215639;23;20327;-64
2022/07/19 09:50:06;;;;;;;8.93;1.42;;;31.60;32.30;;;;;;6215597;23;20016;-66
2022/07/19 09:52:34;;;;;;;3.67;1.23;;;31.70;32.30;;;;;;6215548;23;20440;-64
2022/07/19 09:55:03;;;;;;;2.47;1.23;;;31.70;32.10;;;;;;6216769;23;20005;-64
2022/07/19 09:57:36;;;;;;;6.72;1.33;;;31.80;32.60;;;;;;6217200;23;20005;-65
2022/07/19 10:00:05;;;;;;;3.75;1.33;;;31.80;32.40;;;;;;6216630;23;20320;-64
2022/07/19 10:02:37;;;;;;;3.67;1.40;;;31.80;32.60;;;;;;6216840;23;20032;-64
2022/07/19 10:05:04;;;;;;;2.42;1.30;;;31.90;32.20;;;;;;6216680;23;20005;-64
2022/07/19 10:07:32;;;;;;;5.72;1.52;;;32.00;32.30;;;;;;6216793;23;20015;-64
2022/07/19 10:10:06;;;;;;;8.85;1.60;;;32.00;32.20;;;;;;6216026;23;20020;-64
2022/07/19 10:12:33;;;;;;;4.15;1.60;;;32.00;32.10;;;;;;6216781;23;20011;-64
2022/07/19 10:14:58;;;;;;;3.28;1.40;;;32.10;32.00;;;;;;6216727;23;20000;-64
2022/07/19 10:17:33;;;;;;;4.28;1.23;;;32.00;32.00;;;;;;6216671;23;20067;-65
2022/07/19 10:20:01;;;;;;;2.97;1.25;;;32.10;32.20;;;;;;6216338;23;20015;-65
2022/07/19 10:22:27;;;;;;;6.07;1.48;;;32.20;32.50;;;;;;6215879;23;20000;-65
2022/07/19 10:24:57;;;;;;;13.00;2.53;;;32.20;32.40;;;;;;6215969;23;20005;-64
2022/07/19 10:27:26;;;;;;;5.57;1.58;;;32.20;32.10;;;;;;6215815;23;20438;-65
2022/07/19 10:29:57;;;;;;;3.72;1.10;;;32.20;32.00;;;;;;6216057;23;20009;-64
2022/07/19 10:32:31;;;;;;;4.40;1.50;;;32.20;32.00;;;;;;6216736;23;20047;-64
2022/07/19 10:35:18;;;;;;;3.28;1.30;;;32.30;32.30;;;;;;6216082;23;20000;-65
2022/07/19 10:37:48;;;;;;;11.38;2.50;;;32.30;32.40;;;;;;6217433;23;20023;-66
2022/07/19 10:40:37;;;;;;;3.10;1.50;;;32.40;32.30;;;;;;6216339;23;20012;-63
2022/07/19 10:43:07;;;;;;;6.10;1.45;;;32.50;32.20;;;;;;6214169;23;20001;-65
2022/07/19 10:45:33;;;;;;;6.10;1.65;;;32.50;32.30;;;;;;6212817;23;20031;-64
2022/07/19 10:48:02;;;;;;;2.25;1.52;;;32.50;32.00;;;;;;6213395;23;20039;-64
2022/07/19 10:50:42;;;;;;;6.80;1.65;;;32.60;32.00;;;;;;6215993;23;20343;-65
2022/07/19 10:53:08;;;;;;;2.17;1.20;;;32.60;32.00;;;;;;6216092;23;20048;-65
2022/07/19 10:55:34;;;;;;;6.10;1.60;;;32.70;32.00;;;;;;6215951;23;20000;-64
2022/07/19 10:58:06;;;;;;;4.55;1.60;;;32.70;32.00;;;;;;6216107;23;20075;-64
2022/07/19 11:00:39;;;;;;;;;;;32.70;32.10;;;;;;6216429;23;20001;-65
2022/07/19 11:03:20;;;;;;;7.05;1.60;;;32.70;32.00;;;;;;6216471;23;19904;-64
2022/07/19 11:05:54;;;;;;;4.97;1.65;;;32.80;32.10;;;;;;6216350;23;20017;-64
2022/07/19 11:08:39;;;;;;;6.35;1.67;;;32.80;32.00;;;;;;6215805;23;19997;-64
2022/07/19 11:11:18;;;;;;;3.25;1.48;;;32.90;31.70;;;;;;6216019;23;20020;-64
2022/07/19 11:13:50;;;;;;;4.72;1.65;;;32.90;32.70;;;;;;6216207;23;20036;-64
2022/07/19 11:16:16;;;;;;;2.65;1.35;;;32.90;32.20;;;;;;6215424;23;20012;-64
2022/07/19 11:18:43;;;;;;;3.50;1.55;;;33.00;32.00;;;;;;6215794;23;20423;-64
2022/07/19 11:21:11;;;;;;;5.53;1.75;;;32.90;31.90;;;;;;6216100;23;20012;-64
2022/07/19 11:23:39;;;;;;;5.13;1.65;;;33.00;32.00;;;;;;6214765;23;20091;-64
2022/07/19 11:26:20;;;;;;;5.95;1.60;;;33.10;31.90;;;;;;6216175;23;20012;-64
2022/07/19 11:28:47;;;;;;;3.25;1.67;;;33.10;31.50;;;;;;6212378;23;20004;-64
2022/07/19 11:31:23;;;;;;;2.40;1.20;;;33.10;31.70;;;;;;6212181;23;20375;-65
2022/07/19 11:33:52;;;;;;;2.13;1.30;;;33.10;31.60;;;;;;6212593;23;20000;-64
2022/07/19 11:36:19;;;;;;;5.50;1.40;;;33.10;31.40;;;;;;6214869;23;20001;-64
2022/07/19 11:38:58;;;;;;;1.63;1.33;;;33.10;31.40;;;;;;6214528;23;20319;-65
2022/07/19 11:41:30;;;;;;;2.63;1.45;;;33.10;31.60;;;;;;6214366;23;20046;-64
2022/07/19 11:44:07;;;;;;;4.57;1.98;;;33.10;31.50;;;;;;6214194;23;20072;-64
2022/07/19 11:46:37;;;;;;;5.35;1.55;;;33.10;31.70;;;;;;6215179;23;20005;-65
2022/07/19 11:49:05;;;;;;;2.58;1.30;;;33.20;32.00;;;;;;6215585;23;20008;-64
2022/07/19 11:51:31;;;;;;;5.10;1.40;;;33.20;32.00;;;;;;6215079;23;20189;-64
2022/07/19 11:53:59;;;;;;;11.02;2.10;;;33.30;31.30;;;;;;6215429;23;20443;-64
2022/07/19 11:56:28;;;;;;;5.03;1.65;;;33.30;31.10;;;;;;6215406;23;20013;-64
2022/07/19 11:58:57;;;;;;;4.32;1.55;;;33.30;31.00;;;;;;6215049;23;19996;-64
2022/07/19 12:01:35;;;;;;;5.32;1.35;;;33.30;31.00;;;;;;6215510;23;20005;-65
2022/07/19 12:04:11;;;;;;;4.80;1.35;;;33.30;30.90;;;;;;6215182;23;20423;-65
2022/07/19 12:06:40;;;;;;;3.03;1.10;;;33.40;30.80;;;;;;6214920;23;20004;-65
2022/07/19 12:09:08;;;;;;;2.38;1.35;;;33.40;30.50;;;;;;6215437;23;20066;-64
2022/07/19 12:11:41;;;;;;;3.95;1.48;;;33.50;30.50;;;;;;6215256;23;20001;-65
2022/07/19 12:14:20;;;;;;;2.47;1.23;;;33.50;30.30;;;;;;6215284;23;20044;-64
2022/07/19 12:16:47;;;;;;;5.85;1.27;;;33.50;30.10;;;;;;6214725;23;20071;-64
2022/07/19 12:19:17;;;;;;;3.78;1.92;;;33.60;30.20;;;;;;6215748;23;20435;-64
2022/07/19 12:21:44;;;;;;;4.95;1.10;;;33.60;30.20;;;;;;6215264;23;20008;-64
2022/07/19 12:24:11;;;;;;;9.38;2.13;;;33.60;30.00;;;;;;6214530;23;20007;-64
2022/07/19 12:26:38;;;;;;;3.10;1.20;;;33.70;29.90;;;;;;6214946;23;20008;-64
2022/07/19 12:29:46;;;;;;;5.00;1.38;;;33.70;29.90;;;;;;6214908;23;20343;-64
2022/07/19 12:32:26;;;;;;;3.33;1.30;;;33.70;29.90;;;;;;6152694;23;20014;-63
2022/07/19 12:34:58;;;;;;;4.07;1.40;;;33.70;29.80;;;;;;6210830;23;20019;-64
2022/07/19 12:37:29;;;;;;;6.45;2.13;;;33.70;29.30;;;;;;6215210;23;20007;-64
2022/07/19 12:39:58;;;;;;;;;;;33.80;29.70;;;;;;6215308;23;20000;-63
2022/07/19 12:42:23;;;;;;;5.13;1.40;;;33.90;29.50;;;;;;6214526;23;19923;-64
2022/07/19 12:44:49;;;;;;;5.32;1.60;;;33.80;29.30;;;;;;6215135;23;20000;-64
2022/07/19 12:47:16;;;;;;;3.05;1.30;;;33.90;29.40;;;;;;6212797;23;20336;-64
2022/07/19 12:49:43;;;;;;;3.15;1.40;;;33.90;29.30;;;;;;6211528;23;20020;-64
2022/07/19 12:52:09;;;;;;;6.80;1.30;;;33.90;29.20;;;;;;6213366;23;20013;-65
2022/07/19 12:54:35;;;;;;;2.30;1.23;;;33.90;29.10;;;;;;6215697;23;20432;-64